Terminal Aerodrome Forecast
Issued by NWS Shreveport, LA

Home | Current Version | Previous Version | Text Only | Print | Product List | Glossary On
Versions: 1 2 3 4 5 6 7 8 9 10 11 12 13 14 15 16 17 18 19 20 21
239
FTUS44 KSHV 251720
TAFGGG
TAF
KGGG 251720Z 2518/2618 VRB03KT P6SM VCTS FEW040CB FEW090
      TEMPO 2518/2522 VRB15G25KT 3SM TSRA OVC050CB
     FM252200 06006KT P6SM VCTS BKN045CB
     FM260000 08003KT P6SM FEW060 BKN150 BKN250
     FM260600 VRB03KT P6SM SCT150 BKN250
     FM261300 07004KT P6SM SCT250=

USA.gov is the U.S. government's official web portal to all federal, state and local government web resources and services.